Roanoke — WDD9656 — position and weather

sailwx.info

Track history (hours):
 
Tides and Currents Weather Stations Pressure Air Temp Water Temp Dewpoint Dewpoint Depression Visibility Wind Speed Wind Dir Waves Ship Positions

Roanoke

Owner: Vane Line Bunkering, Baltimore, MD. More information available from US FCC via Universal Licensing System and Coast Guard Vessel Documentation Center.

Last reported at 2014-Nov-01 11:33 UTC. Time now 2014-Nov-01 13:21 UTC.
Position N 39°32' W 075°52'.

Length 32 m; draft 13 m.

Type: Towing. MMSI: 367314510.

Date/timePositionNaut miles runAvg speedWind from/ knotsBaromVisibWave heightAir tempDewpointWater temp
2014-Nov-01 11:33N 39°32' W 075°52'1010.3
2014-Nov-01 10:33N 39°33' W 075°39'7 6.7
2014-Nov-01 09:33N 39°28' W 075°34'1010.3
2014-Nov-01 08:33N 39°20' W 075°25'1 0.1
2014-Oct-31 15:18N 39°21' W 075°26'810.0
2014-Oct-31 14:33N 39°26' W 075°33'7 7.4
2014-Oct-31 13:33N 39°33' W 075°35'7 6.8
2014-Oct-31 12:33N 39°32' W 075°44'34 6.8
2014-Oct-31 07:33N 39°14' W 076°20'7 7.1
2014-Oct-31 06:34N 39°12' W 076°29'5 5.3
2014-Oct-31 05:33N 39°15' W 076°34'0 0.0
2014-Oct-31 04:28N 39°15' W 076°34'0 0.0
2014-Oct-31 02:28N 39°15' W 076°34'0 0.0
2014-Oct-31 01:32N 39°15' W 076°34'0 0.0
2014-Oct-31 00:33N 39°15' W 076°34'0 0.3
2014-Oct-30 23:33N 39°15' W 076°34'0 0.0
2014-Oct-30 22:33N 39°15' W 076°34'0 0.3
2014-Oct-30 21:33N 39°15' W 076°34'0 0.0
2014-Oct-30 20:17N 39°15' W 076°34'2 2.6
2014-Oct-30 19:34N 39°14' W 076°32'6 6.1
2014-Oct-30 18:33N 39°11' W 076°25'36 7.2
2014-Oct-30 13:33N 39°32' W 075°47'9 9.2
2014-Oct-30 12:33N 39°33' W 075°36'5 4.7
2014-Oct-30 11:34N 39°38' W 075°34'4 4.0
2014-Oct-30 10:33N 39°41' W 075°31'2 1.6
2014-Oct-30 09:29N 39°43' W 075°30'0 0.0
2014-Oct-30 08:30N 39°43' W 075°30'0 0.0
2014-Oct-30 07:33N 39°43' W 075°30'0 0.0
2014-Oct-30 06:25N 39°43' W 075°30'3 3.1
2014-Oct-30 05:33N 39°45' W 075°29'29 9.2
2014-Oct-30 02:24N 40°03' W 074°59'22 0.8
2014-Oct-28 23:32N 39°50' W 075°22'7 6.5
2014-Oct-28 22:29N 39°46' W 075°29'7 7.2
2014-Oct-28 21:33N 39°40' W 075°32'6 6.1
2014-Oct-28 20:33N 39°34' W 075°33'6 6.2
2014-Oct-28 19:33N 39°33' W 075°41'7 6.3
2014-Oct-28 18:30N 39°32' W 075°50'34 8.1
2014-Oct-28 14:15N 39°07' W 076°20'6 8.5
2014-Oct-28 13:33N 39°01' W 076°22'  
2014-Oct-25 20:29N 37°58' W 076°13'9 8.8
2014-Oct-25 19:29N 38°07' W 076°16'53 9.0
2014-Oct-25 13:33N 39°00' W 076°23'9 8.5
2014-Oct-25 12:27N 39°09' W 076°25'8 8.8
2014-Oct-25 11:33N 39°15' W 076°33'1 0.4
2014-Oct-25 09:06N 39°15' W 076°34'0 0.0
2014-Oct-24 21:24N 39°15' W 076°34'0 0.0
2014-Oct-24 20:03N 39°15' W 076°34'0 0.0
2014-Oct-24 19:31N 39°15' W 076°34'0 0.0
2014-Oct-24 17:23N 39°15' W 076°34'0 0.0
2014-Oct-24 15:27N 39°15' W 076°34'0 0.0
2014-Oct-24 14:22N 39°15' W 076°34'0 0.0
2014-Oct-24 13:17N 39°15' W 076°34'0 0.0
2014-Oct-24 12:23N 39°15' W 076°34'1 1.3
2014-Oct-24 11:31N 39°15' W 076°33'0 0.0
2014-Oct-24 10:32N 39°15' W 076°33'0 0.0
2014-Oct-24 09:30N 39°15' W 076°33'0 0.0
2014-Oct-24 08:33N 39°15' W 076°33'0 0.0
2014-Oct-24 07:31N 39°15' W 076°33'0 0.0
2014-Oct-24 06:32N 39°15' W 076°33'0 0.0
2014-Oct-24 05:33N 39°15' W 076°33'0 0.0
2014-Oct-24 04:33N 39°15' W 076°33'0 0.0
2014-Oct-24 03:22N 39°15' W 076°33'0 0.0
2014-Oct-24 02:31N 39°15' W 076°33'0 0.0
2014-Oct-24 01:23N 39°15' W 076°33'0 0.0
2014-Oct-24 00:33N 39°15' W 076°33'0 0.0
2014-Oct-23 23:33N 39°15' W 076°33'0 0.0
2014-Oct-23 21:32N 39°15' W 076°33'0 0.5
2014-Oct-23 20:33N 39°15' W 076°34'0 0.2
2014-Oct-23 19:33N 39°15' W 076°34'1 0.6
2014-Oct-23 18:33N 39°15' W 076°34'0 0.0
2014-Oct-23 17:31N 39°15' W 076°34'0 0.0
2014-Oct-23 16:32N 39°15' W 076°34'0 0.0
2014-Oct-23 15:30N 39°15' W 076°34'0 0.0
2014-Oct-23 14:33N 39°15' W 076°34'0 0.0
2014-Oct-23 13:25N 39°15' W 076°34'0 0.0
2014-Oct-23 12:28N 39°15' W 076°34'0 0.0
2014-Oct-23 11:32N 39°15' W 076°34'0 0.0
2014-Oct-23 10:33N 39°15' W 076°34'0 0.0
2014-Oct-23 08:22N 39°15' W 076°34'0 0.0
2014-Oct-23 06:23N 39°15' W 076°34'3 3.9
2014-Oct-23 05:33N 39°13' W 076°31'36 8.3
2014-Oct-23 01:12N 39°32' W 075°52'6 8.4
2014-Oct-23 00:32N 39°32' W 075°45'8 8.6
2014-Oct-22 23:33N 39°34' W 075°34'5 4.8
2014-Oct-22 22:33N 39°33' W 075°40'39 7.6
2014-Oct-22 17:23N 39°12' W 076°23'6 7.5
2014-Oct-22 16:34N 39°12' W 076°31'3 2.7
2014-Oct-22 15:33N 39°14' W 076°34'0 0.0
2014-Oct-22 13:13N 39°14' W 076°34'0 0.0
2014-Oct-22 12:14N 39°14' W 076°34'  
Track history (hours):
 
Tides and Currents Weather Stations Pressure Air Temp Water Temp Dewpoint Dewpoint Depression Visibility Wind Speed Wind Dir Waves Ship Positions

Roanoke

Owner: Vane Line Bunkering, Baltimore, MD. More information available from US FCC via Universal Licensing System and Coast Guard Vessel Documentation Center.

Last reported at 2014-Nov-01 11:33 UTC. Time now 2014-Nov-01 13:21 UTC.
Position N 39°32' W 075°52'.

Length 32 m; draft 13 m.

Type: Towing. MMSI: 367314510.

Date/timePositionNaut miles runAvg speedWind from/ knotsBaromVisibWave heightAir tempDewpointWater temp
2014-Nov-01 11:33N 39°32' W 075°52'1010.3
2014-Nov-01 10:33N 39°33' W 075°39'7 6.7
2014-Nov-01 09:33N 39°28' W 075°34'1010.3
2014-Nov-01 08:33N 39°20' W 075°25'1 0.1
2014-Oct-31 15:18N 39°21' W 075°26'810.0
2014-Oct-31 14:33N 39°26' W 075°33'7 7.4
2014-Oct-31 13:33N 39°33' W 075°35'7 6.8
2014-Oct-31 12:33N 39°32' W 075°44'34 6.8
2014-Oct-31 07:33N 39°14' W 076°20'7 7.1
2014-Oct-31 06:34N 39°12' W 076°29'5 5.3
2014-Oct-31 05:33N 39°15' W 076°34'0 0.0
2014-Oct-31 04:28N 39°15' W 076°34'0 0.0
2014-Oct-31 02:28N 39°15' W 076°34'0 0.0
2014-Oct-31 01:32N 39°15' W 076°34'0 0.0
2014-Oct-31 00:33N 39°15' W 076°34'0 0.3
2014-Oct-30 23:33N 39°15' W 076°34'0 0.0
2014-Oct-30 22:33N 39°15' W 076°34'0 0.3
2014-Oct-30 21:33N 39°15' W 076°34'0 0.0
2014-Oct-30 20:17N 39°15' W 076°34'2 2.6
2014-Oct-30 19:34N 39°14' W 076°32'6 6.1
2014-Oct-30 18:33N 39°11' W 076°25'36 7.2
2014-Oct-30 13:33N 39°32' W 075°47'9 9.2
2014-Oct-30 12:33N 39°33' W 075°36'5 4.7
2014-Oct-30 11:34N 39°38' W 075°34'4 4.0
2014-Oct-30 10:33N 39°41' W 075°31'2 1.6
2014-Oct-30 09:29N 39°43' W 075°30'0 0.0
2014-Oct-30 08:30N 39°43' W 075°30'0 0.0
2014-Oct-30 07:33N 39°43' W 075°30'0 0.0
2014-Oct-30 06:25N 39°43' W 075°30'3 3.1
2014-Oct-30 05:33N 39°45' W 075°29'29 9.2
2014-Oct-30 02:24N 40°03' W 074°59'22 0.8
2014-Oct-28 23:32N 39°50' W 075°22'7 6.5
2014-Oct-28 22:29N 39°46' W 075°29'7 7.2
2014-Oct-28 21:33N 39°40' W 075°32'6 6.1
2014-Oct-28 20:33N 39°34' W 075°33'6 6.2
2014-Oct-28 19:33N 39°33' W 075°41'7 6.3
2014-Oct-28 18:30N 39°32' W 075°50'34 8.1
2014-Oct-28 14:15N 39°07' W 076°20'6 8.5
2014-Oct-28 13:33N 39°01' W 076°22'  
2014-Oct-25 20:29N 37°58' W 076°13'9 8.8
2014-Oct-25 19:29N 38°07' W 076°16'53 9.0
2014-Oct-25 13:33N 39°00' W 076°23'9 8.5
2014-Oct-25 12:27N 39°09' W 076°25'8 8.8
2014-Oct-25 11:33N 39°15' W 076°33'1 0.4
2014-Oct-25 09:06N 39°15' W 076°34'0 0.0
2014-Oct-24 21:24N 39°15' W 076°34'0 0.0
2014-Oct-24 20:03N 39°15' W 076°34'0 0.0
2014-Oct-24 19:31N 39°15' W 076°34'0 0.0
2014-Oct-24 17:23N 39°15' W 076°34'0 0.0
2014-Oct-24 15:27N 39°15' W 076°34'0 0.0
2014-Oct-24 14:22N 39°15' W 076°34'0 0.0
2014-Oct-24 13:17N 39°15' W 076°34'0 0.0
2014-Oct-24 12:23N 39°15' W 076°34'1 1.3
2014-Oct-24 11:31N 39°15' W 076°33'0 0.0
2014-Oct-24 10:32N 39°15' W 076°33'0 0.0
2014-Oct-24 09:30N 39°15' W 076°33'0 0.0
2014-Oct-24 08:33N 39°15' W 076°33'0 0.0
2014-Oct-24 07:31N 39°15' W 076°33'0 0.0
2014-Oct-24 06:32N 39°15' W 076°33'0 0.0
2014-Oct-24 05:33N 39°15' W 076°33'0 0.0
2014-Oct-24 04:33N 39°15' W 076°33'0 0.0
2014-Oct-24 03:22N 39°15' W 076°33'0 0.0
2014-Oct-24 02:31N 39°15' W 076°33'0 0.0
2014-Oct-24 01:23N 39°15' W 076°33'0 0.0
2014-Oct-24 00:33N 39°15' W 076°33'0 0.0
2014-Oct-23 23:33N 39°15' W 076°33'0 0.0
2014-Oct-23 21:32N 39°15' W 076°33'0 0.5
2014-Oct-23 20:33N 39°15' W 076°34'0 0.2
2014-Oct-23 19:33N 39°15' W 076°34'1 0.6
2014-Oct-23 18:33N 39°15' W 076°34'0 0.0
2014-Oct-23 17:31N 39°15' W 076°34'0 0.0
2014-Oct-23 16:32N 39°15' W 076°34'0 0.0
2014-Oct-23 15:30N 39°15' W 076°34'0 0.0
2014-Oct-23 14:33N 39°15' W 076°34'0 0.0
2014-Oct-23 13:25N 39°15' W 076°34'0 0.0
2014-Oct-23 12:28N 39°15' W 076°34'0 0.0
2014-Oct-23 11:32N 39°15' W 076°34'0 0.0
2014-Oct-23 10:33N 39°15' W 076°34'0 0.0
2014-Oct-23 08:22N 39°15' W 076°34'0 0.0
2014-Oct-23 06:23N 39°15' W 076°34'3 3.9
2014-Oct-23 05:33N 39°13' W 076°31'36 8.3
2014-Oct-23 01:12N 39°32' W 075°52'6 8.4
2014-Oct-23 00:32N 39°32' W 075°45'8 8.6
2014-Oct-22 23:33N 39°34' W 075°34'5 4.8
2014-Oct-22 22:33N 39°33' W 075°40'39 7.6
2014-Oct-22 17:23N 39°12' W 076°23'6 7.5
2014-Oct-22 16:34N 39°12' W 076°31'3 2.7
2014-Oct-22 15:33N 39°14' W 076°34'0 0.0
2014-Oct-22 13:13N 39°14' W 076°34'0 0.0
2014-Oct-22 12:14N 39°14' W 076°34'  

Dump ship's entire track history